Latest Coastal Weather Observations for Gabo Island

IDT60701

Issued at 8:32 pm EST Thursday 5 May 2016 (issued every 10 minutes, with the page automatically refreshed every 10 minutes)

About coastal observations | Map of coastal stations | Coastal observations for TAS | Marine services | Other Formats
Station Details ID: 084016 Name: GABO ISLAND LIGHTHOUSE Lat: -37.57 Lon: 149.92 Height: 15.2 m
Data from the previous 72 hours. | See also: Recent months at Gabo Island
Date/Time
EST
Temp

°C
Wind Pressure Rain
since 9am
mm
Weather Cloud Vis
km
Sea
Height
m
Swell
Dir
 
Speed
knots
Gust
knots
hPa Trend Height
m
Period
s
Dir
05/08:30pm 15.2 NNE 11 13 1015.6 - 0.0 - - - - - - -
05/08:00pm 15.2 NNE 10 13 1015.5 - 0.0 - - - - - - -
05/07:30pm 15.1 NNE 11 14 1015.7 - 0.0 - - - - - - -
05/07:00pm 15.0 NNE 11 14 1015.6 - 0.0 - - - - - - -
05/06:30pm 15.2 NNE 12 14 1015.2 - 0.0 - - - - - - -
05/06:00pm 15.4 NNE 11 13 1015.2 - 0.0 - - - - - - -
05/05:30pm 16.2 NNE 13 15 1015.0 - 0.0 - - - - - - -
05/05:00pm 16.7 NE 14 16 1014.9 - 0.0 - - - - - - -
05/04:30pm 16.7 NE 14 16 1015.1 - 0.0 - - - - - - -
05/04:00pm 17.0 NE 13 15 1015.2 - 0.0 - - - - - - -
05/03:30pm 17.3 NE 13 15 1015.4 - 0.0 - - - - - - -
05/03:00pm 17.5 NE 12 13 1015.6 - 0.0 Fine Mostly clear 40 1 1.0 - -
05/02:30pm 17.8 ENE 10 11 1015.7 - 0.0 - - - - - - -
05/02:00pm 18.1 ENE 8 10 1015.9 - 0.0 - - - - - - -
05/01:30pm 18.3 ENE 7 8 1016.0 - 0.0 - - - - - - -
05/01:00pm 18.6 E 4 6 1016.4 - 0.0 - - - - - - -
05/12:30pm 18.5 E 3 4 1016.9 - 0.0 - - - - - - -
05/12:00pm 18.7 ESE 1 4 1017.4 - 0.0 - - - - - - -
05/11:30am 18.3 WSW 6 7 1017.8 - 0.0 - - - - - - -
05/11:00am 18.4 W 6 8 1018.4 - 0.0 - - - - - - -
05/10:30am 17.5 WNW 6 8 1018.8 - 0.0 - - - - - - -
05/10:00am 16.7 WNW 7 9 1019.1 - 0.0 - - - - - - -
05/09:30am 15.7 NW 8 9 1019.3 - 0.0 - - - - - - -
05/09:00am 14.6 WNW 7 9 1019.6 - 0.0 Fine Clear 40 <0.5 1.0 - -
05/08:30am 14.2 WNW 7 9 1019.5 - 0.0 - - - - - - -
05/08:00am 12.8 WNW 7 9 1019.3 - 0.0 - - - - - - -
05/07:30am 12.5 WNW 7 8 1019.0 - 0.0 - - - - - - -
05/07:00am 12.1 WNW 8 9 1018.8 - 0.0 - - - - - - -
05/06:30am 11.5 WNW 8 9 1018.5 - 0.0 - - - - - - -
05/06:00am 11.5 W 9 11 1018.5 - 0.0 - - - - - - -
05/05:30am 11.5 W 9 11 1018.3 - 0.0 - - - - - - -
05/05:00am 11.6 W 9 10 1018.1 - 0.0 - - - - - - -
05/04:30am 11.7 WNW 8 10 1018.0 - 0.0 - - - - - - -
05/04:00am 11.1 WNW 9 11 1017.9 - 0.0 - - - - - - -
05/03:30am 11.4 WNW 9 11 1017.8 - 0.0 - - - - - - -
05/03:00am 11.6 W 8 9 1017.8 - 0.0 Fine Clear 40 1 1.0 - -
05/02:30am 11.7 WNW 9 11 1017.8 - 0.0 - - - - - - -
05/02:00am 12.5 WNW 9 11 1017.8 - 0.0 - - - - - - -
05/01:30am 12.2 WNW 9 10 1017.9 - 0.0 - - - - - - -
05/01:00am 12.1 WNW 9 10 1018.0 - 0.0 - - - - - - -
05/12:30am 12.3 WNW 7 8 1018.2 - 0.0 - - - - - - -
05/12:00am 13.4 WNW 4 7 1018.3 - 0.0 - - - - - - -
 
Date/Time
EST
Temp

°C
Wind Pressure Rain
since 9am
mm
Weather Cloud Vis
km
Sea
Height
m
Swell
Dir
 
Speed
knots
Gust
knots
hPa Trend Height
m
Period
s
Dir
04/11:30pm 13.0 NNW 4 5 1018.4 - 0.0 - - - - - - -
04/11:00pm 12.9 N 5 6 1018.3 - 0.0 - - - - - - -
04/10:30pm 12.7 N 7 8 1018.6 - 0.0 - - - - - - -
04/10:00pm 12.2 N 7 8 1018.4 - 0.0 - - - - - - -
04/09:30pm 12.2 N 6 7 1018.4 - 0.0 - - - - - - -
04/09:00pm 12.1 N 6 7 1018.2 - 0.0 Fine Clear 40 1 1.0 - -
04/08:30pm 11.9 N 6 7 1018.0 - 0.0 - - - - - - -
04/08:00pm 12.3 N 6 7 1017.9 - 0.0 - - - - - - -
04/07:30pm 12.1 N 6 8 1017.7 - 0.0 - - - - - - -
04/07:00pm 14.6 CALM 0 0 1017.5 - 0.0 - - - - - - -
04/06:30pm 15.4 SSW 5 6 1017.3 - 0.0 - - - - - - -
04/06:00pm 15.3 SSW 8 9 1016.9 - 0.0 - - - - - - -
04/05:30pm 15.3 SSW 10 12 1016.4 - 0.0 - - - - - - -
04/05:00pm 15.3 SSW 12 15 1015.9 - 0.0 - - - - - - -
04/04:30pm 15.7 SSW 14 17 1015.6 - 0.0 - - - - - - -
04/04:00pm 15.8 SSW 15 17 1015.6 - 0.0 - - - - - - -
04/03:30pm 16.1 SSW 17 19 1015.4 - 0.0 - - - - - - -
04/03:00pm 16.1 SSW 17 21 1015.3 - 0.0 Fine Mostly clear 40 2 1.0 - -
04/02:30pm 15.9 SSW 19 22 1015.0 - 0.0 - - - - - - -
04/02:00pm 16.0 SSW 18 21 1014.9 - 0.0 - - - - - - -
04/01:30pm 16.1 SSW 17 20 1014.7 - 0.0 - - - - - - -
04/01:00pm 16.0 SSW 18 22 1014.8 - 0.0 - - - - - - -
04/12:30pm 16.3 SW 19 23 1014.9 - 0.0 - - - - - - -
04/12:00pm 16.2 SW 21 27 1014.7 - 0.0 - - - - - - -
04/11:30am 16.1 SW 21 26 1015.0 - 0.0 - - - - - - -
04/11:00am 15.9 SW 23 29 1014.7 - 0.0 - - - - - - -
04/10:30am 15.7 WSW 19 23 1014.8 - 0.0 - - - - - - -
04/10:00am 15.4 W 16 19 1014.7 - 0.0 - - - - - - -
04/09:30am 15.3 W 15 21 1014.9 - 0.0 - - - - - - -
04/09:00am 15.0 W 13 19 1015.0 - 0.2 Fine Partly cloudy 40 2 1.0 - -
04/08:30am 14.6 W 13 17 1014.7 - 0.2 - - - - - - -
04/08:00am 13.6 WNW 10 12 1014.2 - 0.2 - - - - - - -
04/07:30am 12.8 WNW 8 11 1013.5 - 0.2 - - - - - - -
04/07:00am 12.2 WNW 10 13 1013.2 - 0.2 - - - - - - -
04/06:30am 12.4 W 11 14 1012.6 - 0.0 - - - - - - -
04/06:00am 12.6 WNW 9 12 1011.9 - 0.0 - - - - - - -
04/05:30am 12.8 W 10 14 1011.4 - 0.0 - - - - - - -
04/05:00am 12.8 W 10 15 1011.1 - 0.0 - - - - - - -
04/04:30am 12.6 W 12 16 1010.8 - 0.0 - - - - - - -
04/04:00am 12.7 W 10 15 1010.4 - 0.0 - - - - - - -
04/03:30am 12.8 W 13 16 1010.0 - 0.0 - - - - - - -
04/03:00am 13.1 WSW 16 21 1009.7 - 0.0 Drizzle Cloudy 30 2 1.0 - -
04/02:30am 13.2 WSW 18 22 1009.5 - 0.0 - - - - - - -
04/02:00am 13.9 WSW 16 21 1009.1 - 0.0 - - - - - - -
04/01:30am 14.2 WSW 17 23 1008.8 - 0.0 - - - - - - -
04/01:00am 14.3 WSW 22 27 1008.6 - 0.0 - - - - - - -
04/12:30am 14.8 WSW 15 20 1008.2 - 0.0 - - - - - - -
04/12:00am 15.0 W 12 15 1007.8 - 0.0 - - - - - - -
 
Date/Time
EST
Temp

°C
Wind Pressure Rain
since 9am
mm
Weather Cloud Vis
km
Sea
Height
m
Swell
Dir
 
Speed
knots
Gust
knots
hPa Trend Height
m
Period
s
Dir
03/11:49pm 14.9 W 13 22 1007.8 - 0.0 - - - - - - -
03/11:30pm 14.9 SW 22 28 1007.6 - 0.0 - - - - - - -
03/11:00pm 15.7 SW 22 29 1007.6 - 0.0 - - - - - - -
03/10:30pm 16.3 SW 25 32 1006.8 - 0.0 - - - - - - -
03/10:00pm 16.3 SW 29 35 1006.3 - 0.0 - - - - - - -
03/09:30pm 16.5 SW 29 35 1005.9 - 0.0 - - - - - - -
03/09:11pm 17.5 SSW 33 43 1004.8 - 0.0 - - - - - - -
03/09:10pm 18.0 SSW 30 37 1005.0 - 0.0 - - - - - - -
03/09:08pm 19.1 W 22 34 1004.9 - 0.0 - - - - - - -
03/09:00pm 19.7 NW 12 17 1003.6 - 0.0 Fine Partly cloudy 40 1 1.0 - -
03/08:30pm 19.1 NNW 9 13 1003.4 - 0.0 - - - - - - -
03/08:00pm 19.4 NNW 10 15 1003.1 - 0.0 - - - - - - -
03/07:30pm 19.1 N 10 14 1002.3 - 0.0 - - - - - - -
03/07:00pm 19.3 N 10 15 1002.0 - 0.0 - - - - - - -
03/06:30pm 18.9 N 8 11 1002.0 - 0.0 - - - - - - -
03/06:00pm 18.0 N 7 9 1001.4 - 0.0 - - - - - - -
03/05:30pm 17.8 N 7 8 1000.7 - 0.0 - - - - - - -
03/05:00pm 18.6 N 9 12 999.9 - 0.0 - - - - - - -
03/04:30pm 19.3 N 12 15 999.5 - 0.0 - - - - - - -
03/04:00pm 19.6 N 13 17 999.2 - 0.0 - - - - - - -
03/03:30pm 19.9 N 17 21 999.3 - 0.0 - - - - - - -
03/03:00pm 19.6 NNE 21 25 998.9 - 0.0 Fine Mostly clear 40 2 1.0 - -
03/02:30pm 19.6 NNE 20 24 999.4 - 0.0 - - - - - - -
03/02:00pm 19.5 NNE 18 23 999.9 - 0.0 - - - - - - -
03/01:30pm 19.2 NNE 20 25 1000.2 - 0.0 - - - - - - -
03/01:00pm 18.9 NE 21 26 1000.7 - 0.0 - - - - - - -
03/12:30pm 18.8 NE 20 23 1001.5 - 0.0 - - - - - - -
03/12:00pm 19.0 NE 18 22 1002.7 - 0.0 - - - - - - -
03/11:30am 21.3 N 8 13 1003.6 - 0.0 - - - - - - -
03/11:00am 19.4 NNE 11 15 1004.2 - 0.0 - - - - - - -
03/10:30am 18.8 NNE 13 17 1004.8 - 0.0 - - - - - - -
03/10:00am 19.0 N 12 14 1005.2 - 0.0 - - - - - - -
03/09:30am 17.7 NE 7 8 1005.6 - 0.0 - - - - - - -
03/09:00am 16.6 NNE 8 13 1005.7 - 0.0 Fine Clear 40 1 1.0 - -
03/08:30am 15.9 NE 5 7 1006.1 - 0.0 - - - - - - -
03/08:00am 14.8 ESE 2 5 1006.4 - 0.0 - - - - - - -
03/07:30am 12.7 SSW 5 6 1006.4 - 0.0 - - - - - - -
03/07:00am 12.0 WSW 6 9 1006.9 - 0.0 - - - - - - -
03/06:30am 10.7 N 6 8 1006.5 - 0.0 - - - - - - -
03/06:00am 10.7 NNE 5 8 1006.5 - 0.0 - - - - - - -
03/05:30am 12.7 NNW 3 4 1006.8 - 0.0 - - - - - - -
03/05:00am 11.7 N 4 5 1006.9 - 0.0 - - - - - - -
03/04:30am 11.1 N 5 6 1007.1 - 0.0 - - - - - - -
03/04:00am 11.7 N 8 10 1007.0 - 0.0 - - - - - - -
03/03:30am 11.3 N 10 11 1007.1 - 0.0 - - - - - - -
03/03:00am 11.4 N 9 11 1007.4 - 0.0 Fine Clear 40 1 1.0 - -
03/02:30am 10.6 N 7 8 1008.1 - 0.0 - - - - - - -
03/02:00am 11.1 N 8 9 1008.5 - 0.0 - - - - - - -
03/01:30am 11.9 N 9 10 1009.1 - 0.0 - - - - - - -
03/01:00am 12.3 N 9 10 1009.5 - 0.0 - - - - - - -
03/12:30am 11.9 N 8 9 1009.7 - 0.0 - - - - - - -
03/12:00am 11.3 NNW 7 9 1010.3 - 0.0 - - - - - - -
 
Date/Time
EST
Temp

°C
Wind Pressure Rain
since 9am
mm
Weather Cloud Vis
km
Sea
Height
m
Swell
Dir
 
Speed
knots
Gust
knots
hPa Trend Height
m
Period
s
Dir
02/11:30pm 11.6 NNW 6 7 1010.4 - 0.0 - - - - - - -
02/11:00pm 11.0 N 7 9 1010.6 - 0.0 - - - - - - -
02/10:30pm 11.2 N 6 7 1010.7 - 0.0 - - - - - - -
02/10:00pm 11.9 NNW 6 7 1010.8 - 0.0 - - - - - - -
02/09:30pm 11.9 NW 6 7 1011.2 - 0.0 - - - - - - -
02/09:00pm 12.6 NW 8 10 1011.3 - 0.0 Fine Clear 40 <0.5 1.0 - -

Other Formats:

Comma delimited format used in spreadsheet applications
http://www.bom.gov.au/fwo/IDT60701/IDT60701.94933.axf

JavaScript Object Notation format (JSON) in row-major order
http://www.bom.gov.au/fwo/IDT60701/IDT60701.94933.json